Time;durP1;ratioP1;P1;durP2;ratioP2;P2;SDS_P1;SDS_P2;PMS_P1;PMS_P2;Temp;Humidity;BMP_temperature;BMP_pressure;BME280_temperature;BME280_humidity;BME280_pressure;Samples;Min_cycle;Max_cycle;Signal;HPM_P1;HPM_P2
2021/11/14 00:01:20;;;;;;;9.88;8.88;;;5.30;99.90;;;;;;4748400;29;20508;-80
2021/11/14 00:03:48;;;;;;;14.50;9.88;;;5.20;99.90;;;;;;4746073;30;20052;-81
2021/11/14 00:06:20;;;;;;;7.78;6.82;;;5.40;99.90;;;;;;4749218;30;20055;-81
2021/11/14 00:08:49;;;;;;;10.75;8.07;;;5.30;99.90;;;;;;4747013;30;20040;-81
2021/11/14 00:11:19;;;;;;;11.43;9.82;;;5.30;99.90;;;;;;4732650;30;20047;-81
2021/11/14 00:13:49;;;;;;;10.63;8.13;;;5.20;99.90;;;;;;4746302;30;20066;-81
2021/11/14 00:16:20;;;;;;;9.35;8.45;;;5.20;99.90;;;;;;4749162;30;20055;-81
2021/11/14 00:18:48;;;;;;;12.45;9.85;;;5.30;99.90;;;;;;4751459;30;20525;-81
2021/11/14 00:21:18;;;;;;;8.00;7.18;;;5.30;99.90;;;;;;4752943;29;20068;-81
2021/11/14 00:23:47;;;;;;;12.38;7.63;;;5.30;99.90;;;;;;4737485;30;20059;-81
2021/11/14 00:26:15;;;;;;;11.25;8.70;;;5.30;99.90;;;;;;4752864;30;20044;-81
2021/11/14 00:28:43;;;;;;;8.15;7.07;;;5.40;99.90;;;;;;4752891;30;20064;-81
2021/11/14 00:31:15;;;;;;;9.23;7.95;;;5.30;99.90;;;;;;4751003;30;20501;-81
2021/11/14 00:33:44;;;;;;;13.63;8.87;;;5.30;99.90;;;;;;4770010;29;20489;-81
2021/11/14 00:36:14;;;;;;;15.00;8.55;;;5.30;99.90;;;;;;4771083;30;20425;-81
2021/11/14 00:38:44;;;;;;;10.32;8.32;;;5.40;99.90;;;;;;4770542;29;20399;-81
2021/11/14 00:41:11;;;;;;;11.68;10.48;;;5.30;99.90;;;;;;4739395;29;20068;-81
2021/11/14 00:43:39;;;;;;;10.88;8.30;;;5.30;99.90;;;;;;4770518;30;20417;-81
2021/11/14 00:46:10;;;;;;;13.05;10.63;;;5.20;99.90;;;;;;4770547;30;20052;-81
2021/11/14 00:48:42;;;;;;;11.15;8.02;;;5.20;99.90;;;;;;4761148;30;20056;-81
2021/11/14 00:51:23;;;;;;;12.45;10.65;;;5.40;99.90;;;;;;4752327;30;20048;-81
2021/11/14 00:53:52;;;;;;;13.30;8.60;;;5.30;99.90;;;;;;4752536;30;20087;-79
2021/11/14 00:56:20;;;;;;;11.95;9.23;;;5.30;99.90;;;;;;4752513;30;20056;-79
2021/11/14 00:58:48;;;;;;;9.70;6.93;;;5.30;99.90;;;;;;4752266;30;20063;-79
2021/11/14 01:01:16;;;;;;;15.43;8.75;;;5.30;99.90;;;;;;4751967;29;20060;-79
2021/11/14 01:03:44;;;;;;;11.02;8.57;;;5.30;99.90;;;;;;4751072;30;20064;-79
2021/11/14 01:06:12;;;;;;;9.80;7.55;;;5.30;99.90;;;;;;4751787;30;20055;-79
2021/11/14 01:08:40;;;;;;;11.55;9.13;;;5.30;99.90;;;;;;4752369;30;20069;-79
2021/11/14 01:11:09;;;;;;;8.65;7.72;;;5.40;99.90;;;;;;4752031;30;20060;-79
2021/11/14 01:13:38;;;;;;;10.25;9.27;;;5.30;99.90;;;;;;4751950;29;20395;-79
2021/11/14 01:16:10;;;;;;;10.77;9.15;;;5.30;99.90;;;;;;4752546;30;20550;-79
2021/11/14 01:18:38;;;;;;;10.30;8.38;;;5.40;99.90;;;;;;4750383;30;20059;-79
2021/11/14 01:21:09;;;;;;;11.05;8.48;;;5.40;99.90;;;;;;4752407;30;20390;-79
2021/11/14 01:23:37;;;;;;;11.38;8.95;;;5.40;99.90;;;;;;4751809;30;20063;-79
2021/11/14 01:26:05;;;;;;;12.20;9.43;;;5.40;99.90;;;;;;4742380;30;20052;-79
2021/11/14 01:28:33;;;;;;;12.73;8.82;;;5.40;99.90;;;;;;4745752;30;20052;-78
2021/11/14 01:31:01;;;;;;;12.30;8.60;;;5.50;99.90;;;;;;4757038;30;20052;-78
2021/11/14 01:33:29;;;;;;;10.32;9.32;;;5.40;99.90;;;;;;4750908;29;20048;-78
2021/11/14 01:35:58;;;;;;;12.50;9.27;;;5.40;99.90;;;;;;4752156;30;20591;-78
2021/11/14 01:38:27;;;;;;;11.48;7.47;;;5.50;99.90;;;;;;4764913;30;20048;-78
2021/11/14 01:40:59;;;;;;;10.15;7.75;;;5.50;99.90;;;;;;4750696;30;20494;-78
2021/11/14 01:43:43;;;;;;;10.90;8.52;;;5.60;99.90;;;;;;4751493;29;20055;-78
2021/11/14 01:46:11;;;;;;;10.48;8.70;;;5.50;99.90;;;;;;4750985;30;20056;-79
2021/11/14 01:48:40;;;;;;;13.60;9.15;;;5.50;99.90;;;;;;4751236;30;20067;-78
2021/11/14 01:51:10;;;;;;;12.52;8.60;;;5.40;99.90;;;;;;4720642;30;20071;-79
2021/11/14 01:53:39;;;;;;;7.78;6.78;;;5.50;99.90;;;;;;4751485;29;20423;-79
2021/11/14 01:56:10;;;;;;;11.20;7.45;;;5.60;99.90;;;;;;4765269;30;20076;-79
2021/11/14 01:58:38;;;;;;;11.77;7.38;;;5.50;99.90;;;;;;4751126;30;20056;-79
2021/11/14 02:01:14;;;;;;;16.05;9.45;;;5.50;99.90;;;;;;4751507;30;20422;-78
2021/11/14 02:03:50;;;;;;;10.10;9.05;;;5.50;99.90;;;;;;4750602;30;20056;-78
2021/11/14 02:06:20;;;;;;;9.35;8.40;;;5.50;99.90;;;;;;4751302;30;20048;-79
2021/11/14 02:08:48;;;;;;;9.13;7.55;;;5.50;99.90;;;;;;4736074;30;20063;-78
2021/11/14 02:11:16;;;;;;;10.35;9.23;;;5.60;99.90;;;;;;4735288;30;20059;-78
2021/11/14 02:13:46;;;;;;;14.23;7.70;;;5.60;99.90;;;;;;4751070;29;20059;-78
2021/11/14 02:16:15;;;;;;;9.52;8.57;;;5.60;99.90;;;;;;4751678;30;20061;-79
2021/11/14 02:18:43;;;;;;;12.57;9.05;;;5.50;99.90;;;;;;4750357;30;20056;-78
2021/11/14 02:21:11;;;;;;;8.98;7.70;;;5.60;99.90;;;;;;4750754;30;20056;-81
2021/11/14 02:23:39;;;;;;;8.60;7.70;;;5.60;99.90;;;;;;4750290;30;20060;-81
2021/11/14 02:26:07;;;;;;;9.70;7.45;;;5.60;99.90;;;;;;4764192;30;20077;-81
2021/11/14 02:28:35;;;;;;;11.68;8.40;;;5.60;99.90;;;;;;4751222;30;20522;-81
2021/11/14 02:31:03;;;;;;;13.02;8.82;;;5.60;99.90;;;;;;4764378;30;20063;-81
2021/11/14 02:33:31;;;;;;;9.93;8.88;;;5.60;99.90;;;;;;4767839;29;20056;-81
2021/11/14 02:36:04;;;;;;;9.63;8.65;;;5.60;99.90;;;;;;4769196;30;20059;-81
2021/11/14 02:38:32;;;;;;;13.75;9.65;;;5.60;99.90;;;;;;4768438;29;20055;-81
2021/11/14 02:41:06;;;;;;;9.40;7.63;;;5.70;99.90;;;;;;4782042;30;20048;-81
2021/11/14 02:43:36;;;;;;;9.65;8.15;;;5.40;99.90;;;;;;4768113;29;20068;-81
2021/11/14 02:46:04;;;;;;;9.70;7.85;;;5.50;99.90;;;;;;4768266;29;20059;-81
2021/11/14 02:48:33;;;;;;;10.00;8.15;;;5.60;99.90;;;;;;4749972;30;20060;-82
2021/11/14 02:51:03;;;;;;;11.60;9.75;;;5.60;99.90;;;;;;4745693;30;20057;-81
2021/11/14 02:53:31;;;;;;;8.55;7.68;;;5.50;99.90;;;;;;4746264;30;20064;-82
2021/11/14 02:55:59;;;;;;;11.77;9.75;;;5.50;99.90;;;;;;4746606;30;20056;-81
2021/11/14 02:58:28;;;;;;;10.85;7.15;;;5.60;99.90;;;;;;4732502;30;20053;-81
2021/11/14 03:01:02;;;;;;;10.15;9.18;;;5.60;99.90;;;;;;4733049;30;20420;-81
2021/11/14 03:03:50;;;;;;;9.68;8.68;;;5.60;99.90;;;;;;4716183;30;20071;-81
2021/11/14 03:06:19;;;;;;;9.77;8.77;;;5.60;99.90;;;;;;4732741;30;20057;-81
2021/11/14 03:08:46;;;;;;;10.15;8.70;;;5.60;99.90;;;;;;4733276;30;20061;-81
2021/11/14 03:11:15;;;;;;;13.43;9.15;;;5.70;99.90;;;;;;4745923;30;20076;-81
2021/11/14 03:14:04;;;;;;;10.38;8.13;;;5.70;99.90;;;;;;4732706;30;20059;-81
2021/11/14 03:16:33;;;;;;;12.90;10.05;;;5.70;99.90;;;;;;4733266;30;20049;-82
2021/11/14 03:19:01;;;;;;;11.52;8.48;;;5.70;99.90;;;;;;4732538;30;20045;-82
2021/11/14 03:21:29;;;;;;;11.32;9.98;;;5.70;99.90;;;;;;4732675;30;20080;-82
2021/11/14 03:23:58;;;;;;;13.80;10.68;;;5.50;99.90;;;;;;4746586;30;20399;-81
2021/11/14 03:26:26;;;;;;;11.57;10.38;;;5.60;99.90;;;;;;4732068;30;20059;-81
2021/11/14 03:29:12;;;;;;;11.45;8.95;;;5.60;99.90;;;;;;4743853;30;20072;-81
2021/11/14 03:31:41;;;;;;;10.25;9.20;;;5.60;99.90;;;;;;4767847;30;20401;-81
2021/11/14 03:34:09;;;;;;;9.15;7.55;;;5.60;99.90;;;;;;4767398;29;20509;-81
2021/11/14 03:36:37;;;;;;;12.05;9.32;;;5.50;99.90;;;;;;4767959;30;20051;-81
2021/11/14 03:39:07;;;;;;;12.23;8.45;;;5.60;99.90;;;;;;4766519;30;20043;-81
2021/11/14 03:41:38;;;;;;;11.82;8.68;;;5.60;99.90;;;;;;4767490;29;20486;-81
2021/11/14 03:45:07;;;;;;;13.88;10.02;;;5.80;99.90;;;;;;4767914;30;20371;-85
2021/11/14 03:47:38;;;;;;;10.23;9.23;;;5.70;99.90;;;;;;4765658;30;20082;-81
2021/11/14 03:50:08;;;;;;;13.52;10.30;;;5.70;99.90;;;;;;4767260;30;20040;-81
2021/11/14 03:52:39;;;;;;;15.38;10.10;;;5.70;99.90;;;;;;4753280;30;20417;-81
2021/11/14 03:55:07;;;;;;;17.02;12.85;;;5.70;99.90;;;;;;4771322;29;20052;-81
2021/11/14 03:57:35;;;;;;;14.10;12.50;;;5.70;99.90;;;;;;4771171;29;20047;-81
2021/11/14 04:00:08;;;;;;;14.07;11.00;;;5.70;99.90;;;;;;4771237;30;20059;-81
2021/11/14 04:02:35;;;;;;;18.85;10.95;;;5.70;99.90;;;;;;4770720;29;20056;-82
2021/11/14 04:05:04;;;;;;;16.70;12.00;;;5.60;99.90;;;;;;4770111;30;20066;-82
2021/11/14 04:07:32;;;;;;;17.10;10.40;;;5.70;99.90;;;;;;4769884;29;20051;-82
2021/11/14 04:09:59;;;;;;;24.00;10.93;;;5.60;99.90;;;;;;4754835;30;20414;-82
2021/11/14 04:12:53;;;;;;;12.70;9.43;;;5.60;99.90;;;;;;4750697;30;20067;-81
2021/11/14 04:16:13;;;;;;;15.98;10.82;;;5.50;99.90;;;;;;4719849;30;20415;-81
2021/11/14 04:19:44;;;;;;;11.52;8.57;;;5.50;99.90;;;;;;4735146;30;20453;-82
2021/11/14 04:22:49;;;;;;;11.95;9.52;;;5.60;99.90;;;;;;4735301;30;20057;-81
2021/11/14 04:25:35;;;;;;;14.98;12.43;;;5.60;99.90;;;;;;4735370;30;20059;-81
2021/11/14 04:28:05;;;;;;;18.00;10.52;;;5.50;99.90;;;;;;4748700;30;20053;-81
2021/11/14 04:30:34;;;;;;;13.85;10.43;;;5.50;99.90;;;;;;4768370;29;20052;-81
2021/11/14 04:33:02;;;;;;;13.25;11.15;;;5.50;99.90;;;;;;4770153;30;20454;-81
2021/11/14 04:35:30;;;;;;;13.65;11.23;;;5.50;99.90;;;;;;4770721;29;20433;-81
2021/11/14 04:38:18;;;;;;;16.65;9.50;;;5.50;99.90;;;;;;4770611;29;20066;-81
2021/11/14 04:40:47;;;;;;;15.48;9.52;;;5.70;99.90;;;;;;4770910;30;20068;-81
2021/11/14 04:43:17;;;;;;;11.27;10.27;;;5.60;99.90;;;;;;4769846;29;20051;-81
2021/11/14 04:45:47;;;;;;;14.43;10.25;;;5.60;99.90;;;;;;4770404;29;20048;-81
2021/11/14 04:48:15;;;;;;;13.45;8.68;;;5.50;99.90;;;;;;4764031;30;20060;-81
2021/11/14 04:50:43;;;;;;;12.70;9.32;;;5.50;99.90;;;;;;4752535;30;20511;-81
2021/11/14 04:53:12;;;;;;;17.40;11.25;;;5.50;99.90;;;;;;4752615;30;20501;-81
2021/11/14 04:55:40;;;;;;;16.60;11.80;;;5.50;99.90;;;;;;4751356;30;20048;-81
2021/11/14 04:58:10;;;;;;;15.43;9.27;;;5.50;99.90;;;;;;4765727;30;20060;-81
2021/11/14 05:00:47;;;;;;;14.13;10.25;;;5.50;99.90;;;;;;4752653;30;20049;-81
2021/11/14 05:03:16;;;;;;;14.30;11.52;;;5.50;99.90;;;;;;4751709;30;20425;-81
2021/11/14 05:05:45;;;;;;;13.30;10.10;;;5.40;99.90;;;;;;4752555;30;20051;-81
2021/11/14 05:08:31;;;;;;;17.98;13.77;;;5.40;99.90;;;;;;4752697;30;20063;-81
2021/11/14 05:10:58;;;;;;;19.17;12.00;;;5.40;99.90;;;;;;4752174;30;20048;-81
2021/11/14 05:13:26;;;;;;;16.80;11.73;;;5.40;99.90;;;;;;4751862;29;20052;-81
2021/11/14 05:15:54;;;;;;;16.58;13.13;;;5.40;99.90;;;;;;4751379;30;20059;-81
2021/11/14 05:18:22;;;;;;;23.35;11.52;;;5.40;99.90;;;;;;4747442;30;20833;-81
2021/11/14 05:20:49;;;;;;;28.35;14.98;;;5.40;99.90;;;;;;4734627;30;20057;-81
2021/11/14 05:23:17;;;;;;;23.15;16.27;;;5.30;99.90;;;;;;4733675;30;20053;-81
2021/11/14 05:25:46;;;;;;;22.25;13.93;;;5.40;99.90;;;;;;4734371;30;20497;-81
2021/11/14 05:28:15;;;;;;;21.02;13.50;;;5.50;99.90;;;;;;4734577;30;20044;-81
2021/11/14 05:30:43;;;;;;;22.15;12.63;;;5.30;99.90;;;;;;4769627;30;20048;-81
2021/11/14 05:33:11;;;;;;;25.05;14.15;;;5.30;99.90;;;;;;4768718;29;20048;-81
2021/11/14 05:35:40;;;;;;;22.83;14.18;;;5.30;99.90;;;;;;4767859;30;20055;-81
2021/11/14 05:38:08;;;;;;;25.60;16.50;;;5.30;99.90;;;;;;4752004;30;20055;-81
2021/11/14 05:40:36;;;;;;;23.38;15.88;;;5.30;99.90;;;;;;4765967;30;20060;-81
2021/11/14 05:43:04;;;;;;;27.15;15.30;;;5.20;99.90;;;;;;4750239;30;20495;-81
2021/11/14 05:45:33;;;;;;;20.65;13.27;;;5.20;99.90;;;;;;4761939;30;20052;-82
2021/11/14 05:48:01;;;;;;;22.70;12.95;;;5.30;99.90;;;;;;4742054;30;20258;-81
2021/11/14 05:50:29;;;;;;;21.52;15.60;;;5.20;99.90;;;;;;4751575;30;20419;-82
2021/11/14 05:52:56;;;;;;;26.90;14.80;;;5.20;99.90;;;;;;4736681;30;20053;-81
2021/11/14 05:55:25;;;;;;;23.00;16.88;;;5.30;99.90;;;;;;4747246;30;20067;-81
2021/11/14 05:58:11;;;;;;;28.70;15.95;;;5.30;99.90;;;;;;4751066;30;20044;-81
2021/11/14 06:01:05;;;;;;;20.88;14.82;;;5.20;99.90;;;;;;4751387;30;20056;-81
2021/11/14 06:03:38;;;;;;;17.60;14.40;;;5.30;99.90;;;;;;4750671;30;20052;-81
2021/11/14 06:06:07;;;;;;;25.00;16.27;;;5.20;99.90;;;;;;4738701;30;20134;-81
2021/11/14 06:08:35;;;;;;;17.52;12.18;;;5.20;99.90;;;;;;4734063;30;20056;-81
2021/11/14 06:11:03;;;;;;;21.58;13.90;;;5.30;99.90;;;;;;4733257;30;20396;-81
2021/11/14 06:13:34;;;;;;;19.95;13.80;;;5.30;99.90;;;;;;4732423;30;20051;-81
2021/11/14 06:16:02;;;;;;;25.33;16.20;;;5.30;99.90;;;;;;4733500;30;20189;-81
2021/11/14 06:18:30;;;;;;;19.00;12.27;;;5.30;99.90;;;;;;4732791;30;20052;-81
2021/11/14 06:21:00;;;;;;;23.75;14.55;;;5.40;99.90;;;;;;4733845;30;20060;-81
2021/11/14 06:23:28;;;;;;;20.58;12.93;;;5.40;99.90;;;;;;4733238;30;20067;-80
2021/11/14 06:25:56;;;;;;;27.98;15.45;;;5.30;99.90;;;;;;4746710;30;20045;-79
2021/11/14 06:28:24;;;;;;;18.42;14.02;;;5.40;99.90;;;;;;4720380;30;20067;-79
2021/11/14 06:30:51;;;;;;;17.80;11.98;;;5.40;99.90;;;;;;4775984;30;20552;-79
2021/11/14 06:33:19;;;;;;;18.88;16.10;;;5.40;99.90;;;;;;4751787;29;20497;-79
2021/11/14 06:35:47;;;;;;;18.05;13.13;;;5.50;99.90;;;;;;4765986;30;20498;-79
2021/11/14 06:38:15;;;;;;;23.58;15.73;;;5.40;99.90;;;;;;4750976;30;20406;-80
2021/11/14 06:40:43;;;;;;;23.98;15.00;;;5.50;99.90;;;;;;4739676;30;20491;-79
2021/11/14 06:43:10;;;;;;;26.00;15.60;;;5.40;99.90;;;;;;4733173;30;20467;-79
2021/11/14 06:45:38;;;;;;;18.90;13.43;;;5.40;99.90;;;;;;4733378;30;20052;-80
2021/11/14 06:48:06;;;;;;;22.65;16.08;;;5.40;99.90;;;;;;4732923;30;20052;-80
2021/11/14 06:50:34;;;;;;;24.23;16.10;;;5.40;99.90;;;;;;4745988;30;20478;-80
2021/11/14 06:53:02;;;;;;;23.65;13.85;;;5.40;99.90;;;;;;4733549;30;20061;-80
2021/11/14 06:55:30;;;;;;;24.52;15.10;;;5.50;99.90;;;;;;4733073;30;20045;-80
2021/11/14 06:58:16;;;;;;;21.67;12.90;;;5.50;99.90;;;;;;4747484;30;20059;-80
2021/11/14 07:00:44;;;;;;;22.48;13.23;;;5.40;99.90;;;;;;4733216;30;20056;-80
2021/11/14 07:03:12;;;;;;;20.10;13.70;;;5.50;99.90;;;;;;4745844;30;20049;-80
2021/11/14 07:05:40;;;;;;;21.63;15.38;;;5.50;99.90;;;;;;4733031;30;20040;-80
2021/11/14 07:08:09;;;;;;;19.48;14.40;;;5.40;99.90;;;;;;4732191;30;20073;-80
2021/11/14 07:10:37;;;;;;;20.30;13.20;;;5.50;99.90;;;;;;4732942;30;20052;-80
2021/11/14 07:13:05;;;;;;;21.25;12.77;;;5.50;99.90;;;;;;4731845;30;20060;-80
2021/11/14 07:15:33;;;;;;;22.88;12.40;;;5.50;99.90;;;;;;4732592;30;20467;-80
2021/11/14 07:18:01;;;;;;;19.88;13.95;;;5.60;99.90;;;;;;4732175;30;20044;-79
2021/11/14 07:20:28;;;;;;;22.52;13.75;;;5.70;99.90;;;;;;4733131;30;20059;-80
2021/11/14 07:22:56;;;;;;;22.75;14.27;;;5.70;99.90;;;;;;4731317;30;20052;-80
2021/11/14 07:25:24;;;;;;;25.63;13.80;;;5.80;99.90;;;;;;4731192;30;20056;-80
2021/11/14 07:27:53;;;;;;;28.02;14.40;;;5.80;99.90;;;;;;4730194;30;20072;-79
2021/11/14 07:30:23;;;;;;;20.05;14.93;;;5.80;99.90;;;;;;4748180;30;20513;-79
2021/11/14 07:32:53;;;;;;;24.23;11.77;;;5.80;99.90;;;;;;4767828;30;20056;-79
2021/11/14 07:35:23;;;;;;;21.83;14.55;;;5.90;99.90;;;;;;4767991;29;20047;-79
2021/11/14 07:37:52;;;;;;;19.60;11.90;;;5.80;99.90;;;;;;4768208;29;20652;-79
2021/11/14 07:40:22;;;;;;;21.40;12.25;;;5.80;99.90;;;;;;4767950;30;20055;-79
2021/11/14 07:42:52;;;;;;;20.60;14.63;;;5.90;99.90;;;;;;4767061;29;20051;-79
2021/11/14 07:45:21;;;;;;;24.83;15.07;;;6.00;99.90;;;;;;4767737;30;20059;-80
2021/11/14 07:47:50;;;;;;;20.95;14.40;;;6.00;99.90;;;;;;4767630;30;20073;-80
2021/11/14 07:50:22;;;;;;;19.13;12.50;;;6.00;99.90;;;;;;4767104;30;20055;-80
2021/11/14 07:52:50;;;;;;;23.80;13.88;;;6.10;99.90;;;;;;4767842;30;20056;-80
2021/11/14 07:55:18;;;;;;;20.52;12.77;;;6.20;99.90;;;;;;4767683;29;20052;-79
2021/11/14 07:57:46;;;;;;;20.73;12.68;;;6.30;99.90;;;;;;4767420;30;20124;-80
2021/11/14 08:00:20;;;;;;;23.38;17.95;;;6.30;99.90;;;;;;4767834;30;20055;-79
2021/11/14 08:02:48;;;;;;;21.85;14.13;;;6.30;99.90;;;;;;4766922;29;20394;-79
2021/11/14 08:05:17;;;;;;;22.30;13.63;;;6.30;99.90;;;;;;4767042;29;20058;-80
2021/11/14 08:07:45;;;;;;;27.83;11.88;;;6.20;99.90;;;;;;4767883;30;20052;-79
2021/11/14 08:10:15;;;;;;;20.60;13.15;;;6.10;99.90;;;;;;4767484;29;20059;-79
2021/11/14 08:12:44;;;;;;;18.48;14.57;;;6.10;99.90;;;;;;4767681;30;20056;-79
2021/11/14 08:15:11;;;;;;;19.17;10.50;;;6.20;99.90;;;;;;4753821;29;20071;-79
2021/11/14 08:17:39;;;;;;;27.35;14.60;;;6.20;99.90;;;;;;4749344;30;20056;-79
2021/11/14 08:20:08;;;;;;;25.52;15.60;;;6.20;99.90;;;;;;4749360;30;20057;-79
2021/11/14 08:22:36;;;;;;;18.38;11.27;;;6.30;99.90;;;;;;4749569;30;20052;-79
2021/11/14 08:25:06;;;;;;;15.30;11.40;;;6.30;99.90;;;;;;4750004;30;20059;-79
2021/11/14 08:27:52;;;;;;;12.18;9.63;;;6.30;99.90;;;;;;4725802;30;20518;-81
2021/11/14 08:30:20;;;;;;;18.05;10.57;;;6.20;99.90;;;;;;4748483;30;20066;-80
2021/11/14 08:32:49;;;;;;;21.52;13.07;;;6.20;99.90;;;;;;4767824;30;20299;-79
2021/11/14 08:35:19;;;;;;;25.33;11.52;;;6.20;99.90;;;;;;4732928;30;20053;-79
2021/11/14 08:37:49;;;;;;;23.17;13.57;;;6.10;99.90;;;;;;4740740;30;20056;-79
2021/11/14 08:40:17;;;;;;;20.52;11.98;;;6.20;99.90;;;;;;4735528;30;20049;-79
2021/11/14 08:42:45;;;;;;;22.92;13.57;;;6.20;99.90;;;;;;4734886;30;20415;-79
2021/11/14 08:45:13;;;;;;;21.05;13.20;;;6.20;99.90;;;;;;4747465;29;20062;-79
2021/11/14 08:47:42;;;;;;;18.30;9.75;;;6.30;99.90;;;;;;4768371;30;20059;-80
2021/11/14 08:50:11;;;;;;;18.08;11.60;;;6.30;99.90;;;;;;4752131;30;20052;-79
2021/11/14 08:52:44;;;;;;;15.38;11.50;;;6.30;99.90;;;;;;4766425;30;20075;-79
2021/11/14 08:55:18;;;;;;;20.23;12.02;;;6.40;99.90;;;;;;4752311;30;20063;-79
2021/11/14 08:57:47;;;;;;;13.00;8.80;;;6.40;99.90;;;;;;4745483;29;20056;-79
2021/11/14 09:00:18;;;;;;;17.83;11.80;;;6.50;99.90;;;;;;4752365;30;20059;-81
2021/11/14 09:02:58;;;;;;;16.50;11.48;;;6.50;99.90;;;;;;4733783;30;20061;-80
2021/11/14 09:06:14;;;;;;;15.30;9.18;;;6.60;99.90;;;;;;4736357;30;20071;-81
2021/11/14 09:09:12;;;;;;;9.40;8.18;;;6.50;99.90;;;;;;4748251;30;20052;-81
2021/11/14 09:11:52;;;;;;;20.33;11.45;;;6.50;99.90;;;;;;4758246;30;20403;-80
2021/11/14 09:14:24;;;;;;;26.35;12.80;;;6.60;99.90;;;;;;4769276;29;20063;-80
2021/11/14 09:16:54;;;;;;;17.23;9.15;;;6.60;99.90;;;;;;4752746;30;20060;-81
2021/11/14 09:19:23;;;;;;;18.40;11.52;;;6.60;99.90;;;;;;4748504;30;20063;-82
2021/11/14 09:22:10;;;;;;;13.73;8.75;;;6.60;99.90;;;;;;4750571;30;20059;-83
2021/11/14 09:24:38;;;;;;;15.70;8.38;;;6.50;99.90;;;;;;4759042;30;20128;-82
2021/11/14 09:27:07;;;;;;;16.52;11.02;;;6.40;99.90;;;;;;4754344;30;20060;-79
2021/11/14 09:29:36;;;;;;;15.68;9.98;;;6.30;99.90;;;;;;4750615;30;20515;-80
2021/11/14 09:32:05;;;;;;;12.15;8.20;;;6.20;99.90;;;;;;4749972;30;20055;-81
2021/11/14 09:34:34;;;;;;;24.17;12.10;;;6.20;99.90;;;;;;4744980;30;20056;-81
2021/11/14 09:37:02;;;;;;;16.45;11.23;;;6.30;99.90;;;;;;4751889;30;20058;-82
2021/11/14 09:39:30;;;;;;;19.20;13.07;;;6.20;99.90;;;;;;4751796;30;20060;-81
2021/11/14 09:42:02;;;;;;;17.85;12.45;;;6.20;99.90;;;;;;4764707;30;20040;-82
2021/11/14 09:44:30;;;;;;;20.52;12.82;;;6.20;99.90;;;;;;4735559;30;20067;-81
2021/11/14 09:47:01;;;;;;;12.35;9.25;;;6.20;99.90;;;;;;4751184;29;20049;-83
2021/11/14 09:49:32;;;;;;;16.15;9.68;;;6.20;99.90;;;;;;4742851;30;20067;-82
2021/11/14 09:52:02;;;;;;;23.23;15.07;;;6.10;99.90;;;;;;4733827;30;20080;-82
2021/11/14 09:54:32;;;;;;;20.07;14.93;;;6.00;99.90;;;;;;4717913;30;20419;-84
2021/11/14 09:57:00;;;;;;;19.70;11.45;;;6.10;99.90;;;;;;4733033;30;20863;-87
2021/11/14 09:59:31;;;;;;;23.05;15.65;;;6.00;99.90;;;;;;4734144;30;20056;-85
2021/11/14 10:02:01;;;;;;;24.85;14.88;;;5.90;99.90;;;;;;4746023;30;20398;-85
2021/11/14 10:04:30;;;;;;;20.42;14.52;;;5.80;99.90;;;;;;4755117;30;20648;-85
2021/11/14 10:07:11;;;;;;;30.83;15.05;;;5.80;99.90;;;;;;4735251;30;20048;-86
2021/11/14 10:09:48;;;;;;;23.10;16.38;;;5.90;99.90;;;;;;4730250;30;20063;-86
2021/11/14 10:12:18;;;;;;;20.00;11.90;;;5.90;99.90;;;;;;4743230;30;20059;-86
2021/11/14 10:14:50;;;;;;;21.38;12.23;;;5.80;99.90;;;;;;4737516;30;20052;-88
2021/11/14 10:17:27;;;;;;;22.15;14.20;;;5.90;99.90;;;;;;4750368;30;20048;-86
2021/11/14 10:20:03;;;;;;;17.00;9.85;;;5.90;99.90;;;;;;4714744;30;20057;-84
2021/11/14 10:22:31;;;;;;;19.23;11.52;;;5.80;99.90;;;;;;4717169;30;20055;-84
2021/11/14 10:24:59;;;;;;;24.15;13.43;;;5.80;99.90;;;;;;4763306;30;20075;-84
2021/11/14 10:27:29;;;;;;;23.25;14.23;;;5.80;99.90;;;;;;4746420;30;20059;-84
2021/11/14 10:29:57;;;;;;;22.55;13.68;;;5.80;99.90;;;;;;4757275;30;20048;-84
2021/11/14 10:32:28;;;;;;;20.10;13.52;;;5.80;99.90;;;;;;4716256;30;20055;-84
2021/11/14 10:35:02;;;;;;;21.83;14.35;;;5.80;99.90;;;;;;4757863;30;20491;-85
2021/11/14 10:37:43;;;;;;;19.75;10.45;;;5.80;99.90;;;;;;4734002;30;20112;-84
2021/11/14 10:40:19;;;;;;;29.30;11.90;;;5.80;99.90;;;;;;4754897;30;20044;-84
2021/11/14 10:42:54;;;;;;;21.98;12.45;;;5.80;99.90;;;;;;4758917;30;20494;-85
2021/11/14 10:45:24;;;;;;;15.05;11.43;;;5.80;99.90;;;;;;4745937;30;20068;-83
2021/11/14 10:48:09;;;;;;;13.05;10.75;;;5.80;99.90;;;;;;4724134;30;20056;-84
2021/11/14 10:50:41;;;;;;;11.43;10.20;;;5.80;99.90;;;;;;4747213;30;20056;-83
2021/11/14 10:53:12;;;;;;;15.90;11.60;;;5.70;99.90;;;;;;4748071;30;20056;-83
2021/11/14 10:55:56;;;;;;;14.95;7.75;;;5.70;99.90;;;;;;4733250;30;20083;-82
2021/11/14 10:58:27;;;;;;;16.95;12.73;;;5.70;99.90;;;;;;4762269;30;20059;-84
2021/11/14 11:00:58;;;;;;;13.20;8.32;;;5.70;99.90;;;;;;4732176;30;20056;-81
2021/11/14 11:03:41;;;;;;;16.30;12.50;;;5.70;99.90;;;;;;4733596;30;20091;-83
2021/11/14 11:06:22;;;;;;;16.20;11.95;;;5.70;99.90;;;;;;4761489;30;20082;-83
2021/11/14 11:08:51;;;;;;;;;;;5.70;99.90;;;;;;4734583;30;20056;-82
2021/11/14 11:11:33;;;;;;;19.88;13.25;;;5.70;99.90;;;;;;4731451;30;19930;-84
2021/11/14 11:14:01;;;;;;;18.55;14.05;;;5.70;99.90;;;;;;4747911;30;20059;-82
2021/11/14 11:16:33;;;;;;;22.45;13.50;;;5.60;99.90;;;;;;4748979;30;20555;-83
2021/11/14 11:19:12;;;;;;;20.50;10.23;;;5.60;99.90;;;;;;4714422;30;20060;-83
2021/11/14 11:21:46;;;;;;;23.67;12.63;;;5.60;99.90;;;;;;4744535;30;20126;-83
2021/11/14 11:24:32;;;;;;;22.27;15.25;;;5.50;99.90;;;;;;4743324;30;20077;-81
2021/11/14 11:27:04;;;;;;;25.60;15.18;;;5.50;99.90;;;;;;4731424;30;20068;-82
2021/11/14 11:29:35;;;;;;;21.55;15.30;;;5.50;99.90;;;;;;4749624;30;20052;-79
2021/11/14 11:32:07;;;;;;;23.33;16.75;;;5.50;99.90;;;;;;4766230;30;20060;-80
2021/11/14 11:34:35;;;;;;;16.30;10.63;;;5.50;99.90;;;;;;4766219;29;20066;-80
2021/11/14 11:37:03;;;;;;;28.20;14.95;;;5.50;99.90;;;;;;4780744;30;20081;-80
2021/11/14 11:39:31;;;;;;;29.70;15.02;;;5.60;99.90;;;;;;4765763;29;20106;-82
2021/11/14 11:42:01;;;;;;;23.88;16.02;;;5.60;99.90;;;;;;4759740;29;20079;-80
2021/11/14 11:44:55;;;;;;;26.42;17.58;;;5.70;99.90;;;;;;4741872;30;20052;-80
2021/11/14 11:47:45;;;;;;;14.82;9.52;;;5.60;99.90;;;;;;4748036;30;20093;-81
2021/11/14 11:50:14;;;;;;;31.98;19.52;;;5.60;99.90;;;;;;4746319;30;20052;-81
2021/11/14 11:52:43;;;;;;;26.08;15.73;;;5.60;99.90;;;;;;4750534;30;20048;-80
2021/11/14 11:55:31;;;;;;;28.50;14.70;;;5.60;99.90;;;;;;4744622;30;20060;-83
2021/11/14 11:58:15;;;;;;;28.25;19.15;;;5.60;99.90;;;;;;4755371;30;20049;-82
2021/11/14 12:00:55;;;;;;;19.83;13.38;;;5.70;99.90;;;;;;4748576;30;20059;-82
2021/11/14 12:03:26;;;;;;;19.33;15.57;;;5.80;99.90;;;;;;4746404;29;20052;-80
2021/11/14 12:05:55;;;;;;;25.55;17.08;;;5.80;99.90;;;;;;4761923;30;20044;-81
2021/11/14 12:08:42;;;;;;;29.27;16.95;;;5.80;99.90;;;;;;4749244;30;20048;-80
2021/11/14 12:11:21;;;;;;;24.17;13.32;;;5.70;99.90;;;;;;4746843;30;20461;-82
2021/11/14 12:13:50;;;;;;;16.08;10.15;;;5.70;99.90;;;;;;4716572;30;20045;-83
2021/11/14 12:16:31;;;;;;;17.05;14.52;;;5.70;99.90;;;;;;4762706;30;20524;-80
2021/11/14 12:19:00;;;;;;;23.85;16.77;;;5.80;99.90;;;;;;4749187;30;20506;-83
2021/11/14 12:21:30;;;;;;;25.08;12.80;;;5.80;99.90;;;;;;4765085;30;20398;-83
2021/11/14 12:24:02;;;;;;;19.00;14.55;;;5.80;99.90;;;;;;4751548;30;20067;-84
2021/11/14 12:26:34;;;;;;;25.30;14.38;;;5.80;99.90;;;;;;4750741;30;20498;-84
2021/11/14 12:29:07;;;;;;;18.55;13.07;;;5.80;99.90;;;;;;4750609;30;20048;-83
2021/11/14 12:31:52;;;;;;;22.42;13.68;;;5.80;99.90;;;;;;4752852;30;20043;-84
2021/11/14 12:34:28;;;;;;;18.60;13.48;;;5.80;99.90;;;;;;4738397;30;20062;-84
2021/11/14 12:37:12;;;;;;;12.07;9.73;;;5.90;99.90;;;;;;4783929;30;20059;-84
2021/11/14 12:39:43;;;;;;;17.52;12.70;;;5.90;99.90;;;;;;4753669;30;20064;-83
2021/11/14 12:42:18;;;;;;;17.23;11.57;;;5.90;99.90;;;;;;4768678;30;20056;-84
2021/11/14 12:44:52;;;;;;;18.58;14.15;;;6.00;99.90;;;;;;4753883;30;20461;-84
2021/11/14 12:47:29;;;;;;;20.90;13.02;;;6.00;99.90;;;;;;4753249;30;20055;-84
2021/11/14 12:50:28;;;;;;;19.55;15.18;;;6.10;99.90;;;;;;4732007;30;20059;-84
2021/11/14 12:53:20;;;;;;;17.25;10.23;;;6.10;99.90;;;;;;4725595;30;20108;-84
2021/11/14 12:55:48;;;;;;;17.65;12.77;;;6.10;99.90;;;;;;4747965;30;20060;-84
2021/11/14 12:58:18;;;;;;;16.08;11.43;;;6.10;99.90;;;;;;4747017;30;20060;-84
2021/11/14 13:00:55;;;;;;;12.60;10.70;;;6.00;99.90;;;;;;4747583;30;20056;-84
2021/11/14 13:03:29;;;;;;;12.57;10.43;;;6.00;99.90;;;;;;4731447;30;20061;-84
2021/11/14 13:06:01;;;;;;;15.18;12.82;;;6.00;99.90;;;;;;4747301;30;20407;-84